ETX7906 EGAC-EBCI
Flight info
| Callsign | ETX7906 |
|---|---|
| Flight time | 1h 16m |
| Altitude | 25000 |
| Route | DUFFY DCT PEPOD Q38 SOSIM/N0510F270 Q38 GIGTO/N0497F450 Q38 MALUD L15 HON L10 BPK/N0477F230 L10 DVR/N0497F450 UL9 KONAN UL607 KOK |
| Aircraft | C750/M-SBDE3FGHRWXY/S |
Departure
| Time | 2026-05-05 12:49 |
|---|---|
| Airport | George Best Belfast City Airport (EGAC) |
Arrival
| Time | 2026-05-05 14:06 |
|---|---|
| Airport | Brussels South Charleroi Airport (EBCI) |
| Time | Latitude | Longitude | Altitude | Speed | Heading |
|---|---|---|---|---|---|
| 2026-05-05 12:11 | 54.61101 | -5.87679 | 15 ft | 0 kts | 211° |
| 2026-05-05 12:46 | 54.61100 | -5.87680 | 15 ft | 1 kts | 212° |
| 2026-05-05 12:46 | 54.61094 | -5.87696 | 16 ft | 2 kts | 252° |
| 2026-05-05 12:47 | 54.61097 | -5.87741 | 15 ft | 4 kts | 259° |
| 2026-05-05 12:47 | 54.61089 | -5.87798 | 15 ft | 3 kts | 256° |
| 2026-05-05 12:47 | 54.61089 | -5.87800 | 15 ft | 0 kts | 256° |
| 2026-05-05 12:47 | 54.61088 | -5.87805 | 15 ft | 1 kts | 256° |
| 2026-05-05 12:48 | 54.61084 | -5.87868 | 15 ft | 9 kts | 270° |
| 2026-05-05 12:48 | 54.61117 | -5.87981 | 14 ft | 12 kts | 306° |
| 2026-05-05 12:48 | 54.61157 | -5.88027 | 15 ft | 4 kts | 13° |
| 2026-05-05 12:48 | 54.61182 | -5.88000 | 15 ft | 8 kts | 35° |
| 2026-05-05 12:49 | 54.61503 | -5.87619 | 14 ft | 129 kts | 34° |
| 2026-05-05 12:49 | 54.62185 | -5.86854 | 1481 ft | 112 kts | 29° |
| 2026-05-05 12:49 | 54.62886 | -5.86059 | 2840 ft | 132 kts | 32° |
| 2026-05-05 12:49 | 54.63716 | -5.84934 | 3790 ft | 175 kts | 33° |
| 2026-05-05 12:50 | 54.64725 | -5.83417 | 4786 ft | 194 kts | 49° |
| 2026-05-05 12:50 | 54.65061 | -5.81244 | 5805 ft | 192 kts | 87° |
| 2026-05-05 12:50 | 54.64907 | -5.78812 | 6221 ft | 221 kts | 102° |
| 2026-05-05 12:50 | 54.63927 | -5.76537 | 6387 ft | 259 kts | 144° |
| 2026-05-05 12:51 | 54.62163 | -5.75311 | 6822 ft | 286 kts | 166° |
| 2026-05-05 12:51 | 54.60184 | -5.74534 | 7236 ft | 287 kts | 168° |
| 2026-05-05 12:51 | 54.58287 | -5.73692 | 7140 ft | 278 kts | 164° |
| 2026-05-05 12:51 | 54.56396 | -5.72618 | 7088 ft | 292 kts | 161° |
| 2026-05-05 12:52 | 54.54505 | -5.71484 | 7084 ft | 285 kts | 160° |
| 2026-05-05 12:52 | 54.52658 | -5.70259 | 7286 ft | 285 kts | 159° |
| 2026-05-05 12:52 | 54.50799 | -5.68993 | 7540 ft | 288 kts | 159° |
| 2026-05-05 12:52 | 54.48926 | -5.67714 | 7794 ft | 293 kts | 159° |
| 2026-05-05 12:53 | 54.47037 | -5.66423 | 8120 ft | 295 kts | 159° |
| 2026-05-05 12:53 | 54.45139 | -5.65118 | 9341 ft | 291 kts | 159° |
| 2026-05-05 12:53 | 54.43236 | -5.63792 | 10263 ft | 300 kts | 159° |
| 2026-05-05 12:53 | 54.41292 | -5.62412 | 11183 ft | 303 kts | 158° |
| 2026-05-05 12:54 | 54.37375 | -5.59618 | 13044 ft | 309 kts | 159° |
| 2026-05-05 12:54 | 54.35373 | -5.58176 | 13914 ft | 314 kts | 159° |
| 2026-05-05 12:54 | 54.33358 | -5.56713 | 14775 ft | 315 kts | 159° |
| 2026-05-05 12:55 | 54.31527 | -5.54577 | 15424 ft | 325 kts | 135° |
| 2026-05-05 12:55 | 54.30159 | -5.51504 | 16319 ft | 326 kts | 125° |
| 2026-05-05 12:55 | 54.28873 | -5.48277 | 17139 ft | 330 kts | 126° |
| 2026-05-05 12:55 | 54.27449 | -5.45162 | 17982 ft | 334 kts | 131° |
| 2026-05-05 12:56 | 54.25915 | -5.42147 | 18777 ft | 339 kts | 132° |
| 2026-05-05 12:56 | 54.24901 | -5.40101 | 19287 ft | 341 kts | 131° |
| 2026-05-05 12:56 | 54.23409 | -5.36924 | 20087 ft | 345 kts | 130° |
| 2026-05-05 12:56 | 54.21903 | -5.33704 | 20886 ft | 348 kts | 131° |
| 2026-05-05 12:57 | 54.20357 | -5.30495 | 21670 ft | 352 kts | 132° |
| 2026-05-05 12:57 | 54.18786 | -5.27255 | 22456 ft | 356 kts | 132° |
| 2026-05-05 12:57 | 54.17209 | -5.23966 | 23249 ft | 360 kts | 131° |
| 2026-05-05 12:57 | 54.15619 | -5.20644 | 23970 ft | 363 kts | 132° |
| 2026-05-05 12:58 | 54.14008 | -5.17299 | 24623 ft | 364 kts | 132° |
| 2026-05-05 12:58 | 54.12439 | -5.14044 | 25075 ft | 352 kts | 132° |
| 2026-05-05 12:58 | 54.10836 | -5.10735 | 25116 ft | 372 kts | 132° |
| 2026-05-05 12:58 | 54.09143 | -5.07247 | 25205 ft | 393 kts | 132° |
| 2026-05-05 12:59 | 54.07356 | -5.03551 | 25210 ft | 414 kts | 132° |
| 2026-05-05 12:59 | 54.05479 | -4.99671 | 25237 ft | 433 kts | 132° |
| 2026-05-05 12:59 | 54.03537 | -4.95671 | 25576 ft | 441 kts | 132° |
| 2026-05-05 13:00 | 53.99601 | -4.87586 | 26714 ft | 447 kts | 132° |
| 2026-05-05 13:00 | 53.97610 | -4.83508 | 27250 ft | 450 kts | 132° |
| 2026-05-05 13:01 | 53.91531 | -4.71096 | 28873 ft | 461 kts | 133° |
| 2026-05-05 13:01 | 53.89475 | -4.66912 | 29431 ft | 463 kts | 132° |
| 2026-05-05 13:01 | 53.87405 | -4.62706 | 30018 ft | 466 kts | 132° |
| 2026-05-05 13:01 | 53.85321 | -4.58481 | 30461 ft | 469 kts | 132° |
| 2026-05-05 13:02 | 53.83218 | -4.54224 | 30910 ft | 472 kts | 132° |
| 2026-05-05 13:02 | 53.81135 | -4.49929 | 31474 ft | 472 kts | 130° |
| 2026-05-05 13:02 | 53.79178 | -4.45480 | 32127 ft | 470 kts | 129° |
| 2026-05-05 13:02 | 53.77242 | -4.41029 | 32791 ft | 469 kts | 129° |
| 2026-05-05 13:03 | 53.75300 | -4.36620 | 33444 ft | 467 kts | 129° |
| 2026-05-05 13:03 | 53.73355 | -4.32249 | 34093 ft | 466 kts | 129° |
| 2026-05-05 13:03 | 53.71415 | -4.27872 | 34633 ft | 465 kts | 129° |
| 2026-05-05 13:03 | 53.69480 | -4.23489 | 35122 ft | 466 kts | 129° |
| 2026-05-05 13:04 | 53.67538 | -4.19109 | 35624 ft | 467 kts | 129° |
| 2026-05-05 13:04 | 53.65589 | -4.14737 | 36151 ft | 466 kts | 128° |
| 2026-05-05 13:04 | 53.63642 | -4.10371 | 36726 ft | 465 kts | 128° |
| 2026-05-05 13:04 | 53.61697 | -4.06008 | 37259 ft | 466 kts | 128° |
| 2026-05-05 13:05 | 53.59747 | -4.01644 | 37780 ft | 466 kts | 128° |
| 2026-05-05 13:05 | 53.57796 | -3.97291 | 38300 ft | 467 kts | 128° |
| 2026-05-05 13:05 | 53.55838 | -3.92929 | 38815 ft | 467 kts | 128° |
| 2026-05-05 13:05 | 53.53877 | -3.88563 | 39222 ft | 468 kts | 128° |
| 2026-05-05 13:06 | 53.51913 | -3.84200 | 39667 ft | 468 kts | 128° |
| 2026-05-05 13:06 | 53.49948 | -3.79843 | 40104 ft | 469 kts | 128° |
| 2026-05-05 13:06 | 53.47975 | -3.75477 | 40554 ft | 469 kts | 128° |
| 2026-05-05 13:06 | 53.46001 | -3.71115 | 40998 ft | 470 kts | 128° |
| 2026-05-05 13:07 | 53.44022 | -3.66751 | 41445 ft | 470 kts | 128° |
| 2026-05-05 13:07 | 53.42042 | -3.62390 | 41894 ft | 471 kts | 128° |
| 2026-05-05 13:07 | 53.39971 | -3.58140 | 42281 ft | 471 kts | 132° |
| 2026-05-05 13:07 | 53.37793 | -3.54021 | 42689 ft | 472 kts | 133° |
| 2026-05-05 13:08 | 53.35602 | -3.49930 | 43153 ft | 472 kts | 133° |
| 2026-05-05 13:08 | 53.33437 | -3.45795 | 43560 ft | 473 kts | 132° |
| 2026-05-05 13:08 | 53.31284 | -3.41641 | 43992 ft | 473 kts | 132° |
| 2026-05-05 13:08 | 53.29109 | -3.37509 | 44433 ft | 473 kts | 133° |
| 2026-05-05 13:09 | 53.26922 | -3.33400 | 44819 ft | 474 kts | 133° |
| 2026-05-05 13:09 | 53.24734 | -3.29268 | 45064 ft | 477 kts | 133° |
| 2026-05-05 13:09 | 53.20268 | -3.20811 | 45039 ft | 494 kts | 133° |
| 2026-05-05 13:10 | 53.15637 | -3.12119 | 45061 ft | 509 kts | 133° |
| 2026-05-05 13:10 | 53.10874 | -3.03182 | 45054 ft | 521 kts | 133° |
| 2026-05-05 13:11 | 53.06069 | -2.94214 | 45059 ft | 518 kts | 133° |
| 2026-05-05 13:11 | 53.01270 | -2.85285 | 45047 ft | 519 kts | 133° |
| 2026-05-05 13:12 | 52.96455 | -2.76360 | 45019 ft | 519 kts | 133° |
| 2026-05-05 13:12 | 52.91644 | -2.67473 | 45017 ft | 517 kts | 133° |
| 2026-05-05 13:13 | 52.86836 | -2.58624 | 45014 ft | 517 kts | 133° |
| 2026-05-05 13:13 | 52.82009 | -2.49774 | 45016 ft | 519 kts | 133° |
| 2026-05-05 13:14 | 52.77177 | -2.40943 | 45018 ft | 518 kts | 133° |
| 2026-05-05 13:14 | 52.72342 | -2.32141 | 45012 ft | 518 kts | 134° |
| 2026-05-05 13:15 | 52.67491 | -2.23340 | 45017 ft | 519 kts | 134° |
| 2026-05-05 13:15 | 52.62629 | -2.14550 | 45017 ft | 518 kts | 134° |
| 2026-05-05 13:16 | 52.57771 | -2.05801 | 45019 ft | 518 kts | 134° |
| 2026-05-05 13:16 | 52.52894 | -1.97047 | 45009 ft | 519 kts | 134° |
| 2026-05-05 13:17 | 52.48023 | -1.88333 | 45013 ft | 518 kts | 134° |
| 2026-05-05 13:17 | 52.43150 | -1.79649 | 44993 ft | 518 kts | 134° |
| 2026-05-05 13:18 | 52.38262 | -1.70968 | 44989 ft | 518 kts | 134° |
| 2026-05-05 13:18 | 52.33973 | -1.61504 | 44987 ft | 520 kts | 120° |
| 2026-05-05 13:19 | 52.30790 | -1.50860 | 45003 ft | 522 kts | 117° |
| 2026-05-05 13:19 | 52.27365 | -1.40434 | 44991 ft | 520 kts | 120° |
| 2026-05-05 13:20 | 52.24029 | -1.29956 | 44994 ft | 520 kts | 118° |
| 2026-05-05 13:20 | 52.20680 | -1.19590 | 44990 ft | 520 kts | 120° |
| 2026-05-05 13:21 | 52.17169 | -1.09297 | 44977 ft | 519 kts | 124° |
| 2026-05-05 13:21 | 52.13071 | -0.99632 | 44989 ft | 519 kts | 127° |
| 2026-05-05 13:22 | 52.08995 | -0.89948 | 44972 ft | 518 kts | 125° |
| 2026-05-05 13:22 | 52.04923 | -0.80313 | 44973 ft | 517 kts | 126° |
| 2026-05-05 13:23 | 52.00825 | -0.70701 | 44970 ft | 517 kts | 126° |
| 2026-05-05 13:23 | 51.96742 | -0.61097 | 44965 ft | 517 kts | 126° |
| 2026-05-05 13:24 | 51.92636 | -0.51533 | 44963 ft | 517 kts | 126° |
| 2026-05-05 13:24 | 51.88534 | -0.41969 | 44963 ft | 517 kts | 126° |
| 2026-05-05 13:25 | 51.84414 | -0.32431 | 44969 ft | 517 kts | 126° |
| 2026-05-05 13:25 | 51.80295 | -0.22909 | 44991 ft | 517 kts | 126° |
| 2026-05-05 13:26 | 51.76167 | -0.13414 | 44988 ft | 516 kts | 126° |
| 2026-05-05 13:26 | 51.72211 | -0.03763 | 44988 ft | 516 kts | 124° |
| 2026-05-05 13:27 | 51.68308 | 0.05970 | 44963 ft | 517 kts | 124° |
| 2026-05-05 13:27 | 51.64403 | 0.15665 | 44963 ft | 516 kts | 124° |
| 2026-05-05 13:28 | 51.60613 | 0.25346 | 44952 ft | 517 kts | 123° |
| 2026-05-05 13:28 | 51.56778 | 0.35117 | 44947 ft | 516 kts | 124° |
| 2026-05-05 13:29 | 51.52927 | 0.44841 | 44957 ft | 516 kts | 123° |
| 2026-05-05 13:29 | 51.49083 | 0.54565 | 44963 ft | 516 kts | 124° |
| 2026-05-05 13:30 | 51.45220 | 0.64253 | 44961 ft | 515 kts | 124° |
| 2026-05-05 13:30 | 51.41360 | 0.73936 | 44961 ft | 516 kts | 124° |
| 2026-05-05 13:31 | 51.37482 | 0.83600 | 44960 ft | 516 kts | 124° |
| 2026-05-05 13:31 | 51.33603 | 0.93247 | 44962 ft | 516 kts | 124° |
| 2026-05-05 13:32 | 51.29705 | 1.02894 | 44950 ft | 519 kts | 124° |
| 2026-05-05 13:32 | 51.25794 | 1.12548 | 44952 ft | 517 kts | 124° |
| 2026-05-05 13:33 | 51.21863 | 1.22204 | 44955 ft | 520 kts | 124° |
| 2026-05-05 13:33 | 51.18032 | 1.31965 | 44936 ft | 520 kts | 118° |
| 2026-05-05 13:34 | 51.15704 | 1.42855 | 44941 ft | 523 kts | 101° |
| 2026-05-05 13:34 | 51.15265 | 1.48605 | 44636 ft | 520 kts | 95° |
| 2026-05-05 13:34 | 51.15120 | 1.54323 | 43897 ft | 511 kts | 91° |
| 2026-05-05 13:35 | 51.15098 | 1.59910 | 43223 ft | 500 kts | 91° |
| 2026-05-05 13:35 | 51.14981 | 1.65373 | 42562 ft | 488 kts | 95° |
| 2026-05-05 13:35 | 51.14634 | 1.70695 | 41926 ft | 477 kts | 98° |
| 2026-05-05 13:35 | 51.14251 | 1.75887 | 41301 ft | 469 kts | 97° |
| 2026-05-05 13:36 | 51.14010 | 1.81038 | 40673 ft | 463 kts | 94° |
| 2026-05-05 13:36 | 51.13829 | 1.86139 | 40064 ft | 461 kts | 95° |
| 2026-05-05 13:36 | 51.13570 | 1.91227 | 39441 ft | 460 kts | 97° |
| 2026-05-05 13:36 | 51.13258 | 1.96293 | 38836 ft | 461 kts | 97° |
| 2026-05-05 13:37 | 51.12981 | 2.01381 | 38150 ft | 462 kts | 96° |
| 2026-05-05 13:37 | 51.12741 | 2.06468 | 37539 ft | 461 kts | 96° |
| 2026-05-05 13:37 | 51.12480 | 2.11564 | 36913 ft | 463 kts | 97° |
| 2026-05-05 13:37 | 51.12190 | 2.16668 | 36296 ft | 463 kts | 97° |
| 2026-05-05 13:38 | 51.11904 | 2.21772 | 35678 ft | 463 kts | 97° |
| 2026-05-05 13:38 | 51.11725 | 2.25150 | 35267 ft | 463 kts | 97° |
| 2026-05-05 13:38 | 51.11455 | 2.30257 | 34641 ft | 463 kts | 97° |
| 2026-05-05 13:38 | 51.11172 | 2.35350 | 34026 ft | 462 kts | 97° |
| 2026-05-05 13:39 | 51.10883 | 2.40427 | 33392 ft | 460 kts | 97° |
| 2026-05-05 13:39 | 51.10598 | 2.45494 | 32777 ft | 460 kts | 97° |
| 2026-05-05 13:39 | 51.10313 | 2.50571 | 32153 ft | 462 kts | 97° |
| 2026-05-05 13:39 | 51.10023 | 2.55663 | 31533 ft | 463 kts | 97° |
| 2026-05-05 13:40 | 51.09727 | 2.60773 | 30917 ft | 464 kts | 97° |
| 2026-05-05 13:40 | 51.09389 | 2.65882 | 30271 ft | 464 kts | 101° |
| 2026-05-05 13:40 | 51.08794 | 2.70904 | 29630 ft | 459 kts | 103° |
| 2026-05-05 13:40 | 51.08187 | 2.75854 | 29011 ft | 453 kts | 103° |
| 2026-05-05 13:41 | 51.07603 | 2.80757 | 28409 ft | 449 kts | 103° |
| 2026-05-05 13:41 | 51.07028 | 2.85608 | 27799 ft | 445 kts | 103° |
| 2026-05-05 13:41 | 51.06445 | 2.90412 | 27211 ft | 441 kts | 103° |
| 2026-05-05 13:41 | 51.05861 | 2.95168 | 26618 ft | 437 kts | 103° |
| 2026-05-05 13:42 | 51.05294 | 2.99831 | 26049 ft | 418 kts | 103° |
| 2026-05-05 13:42 | 51.04760 | 3.04240 | 25509 ft | 396 kts | 103° |
| 2026-05-05 13:42 | 51.04246 | 3.08432 | 24993 ft | 377 kts | 103° |
| 2026-05-05 13:42 | 51.03750 | 3.12429 | 24503 ft | 361 kts | 103° |
| 2026-05-05 13:43 | 51.03273 | 3.16284 | 24034 ft | 351 kts | 103° |
| 2026-05-05 13:43 | 51.02812 | 3.20010 | 23576 ft | 346 kts | 104° |
| 2026-05-05 13:43 | 51.02341 | 3.23795 | 23062 ft | 344 kts | 104° |
| 2026-05-05 13:43 | 51.01878 | 3.27514 | 22601 ft | 342 kts | 103° |
| 2026-05-05 13:44 | 51.01423 | 3.31160 | 22143 ft | 341 kts | 103° |
| 2026-05-05 13:44 | 51.00960 | 3.34852 | 21688 ft | 341 kts | 103° |
| 2026-05-05 13:44 | 51.00498 | 3.38537 | 21236 ft | 340 kts | 103° |
| 2026-05-05 13:44 | 51.00036 | 3.42206 | 20778 ft | 337 kts | 103° |
| 2026-05-05 13:45 | 50.99578 | 3.45836 | 20311 ft | 334 kts | 103° |
| 2026-05-05 13:45 | 50.99118 | 3.49475 | 19867 ft | 329 kts | 103° |
| 2026-05-05 13:45 | 50.98674 | 3.52973 | 19436 ft | 326 kts | 103° |
| 2026-05-05 13:45 | 50.98227 | 3.56486 | 19002 ft | 324 kts | 103° |
| 2026-05-05 13:46 | 50.97783 | 3.59968 | 18566 ft | 320 kts | 103° |
| 2026-05-05 13:46 | 50.97343 | 3.63411 | 18134 ft | 317 kts | 103° |
| 2026-05-05 13:46 | 50.96906 | 3.66819 | 17684 ft | 314 kts | 102° |
| 2026-05-05 13:46 | 50.96471 | 3.70204 | 17261 ft | 312 kts | 102° |
| 2026-05-05 13:47 | 50.96039 | 3.73562 | 16841 ft | 309 kts | 102° |
| 2026-05-05 13:47 | 50.95610 | 3.76883 | 16430 ft | 306 kts | 102° |
| 2026-05-05 13:47 | 50.95182 | 3.80186 | 16024 ft | 306 kts | 102° |
| 2026-05-05 13:47 | 50.94752 | 3.83500 | 15614 ft | 306 kts | 102° |
| 2026-05-05 13:48 | 50.94326 | 3.86784 | 15203 ft | 302 kts | 101° |
| 2026-05-05 13:48 | 50.93902 | 3.90035 | 14800 ft | 300 kts | 101° |
| 2026-05-05 13:48 | 50.93480 | 3.93269 | 14401 ft | 299 kts | 101° |
| 2026-05-05 13:48 | 50.93051 | 3.96491 | 14004 ft | 297 kts | 102° |
| 2026-05-05 13:49 | 50.92224 | 3.99476 | 13545 ft | 299 kts | 123° |
| 2026-05-05 13:49 | 50.90769 | 4.01785 | 13184 ft | 296 kts | 138° |
| 2026-05-05 13:49 | 50.89166 | 4.03819 | 12892 ft | 295 kts | 140° |
| 2026-05-05 13:49 | 50.87564 | 4.05846 | 12609 ft | 296 kts | 139° |
| 2026-05-05 13:50 | 50.85970 | 4.07902 | 12345 ft | 295 kts | 139° |
| 2026-05-05 13:50 | 50.84381 | 4.09953 | 12075 ft | 295 kts | 139° |
| 2026-05-05 13:50 | 50.82789 | 4.11992 | 11792 ft | 294 kts | 140° |
| 2026-05-05 13:50 | 50.81197 | 4.14028 | 11504 ft | 295 kts | 140° |
| 2026-05-05 13:51 | 50.79607 | 4.16062 | 11227 ft | 293 kts | 140° |
| 2026-05-05 13:51 | 50.78029 | 4.18080 | 10955 ft | 290 kts | 139° |
| 2026-05-05 13:51 | 50.76469 | 4.20073 | 10682 ft | 288 kts | 139° |
| 2026-05-05 13:51 | 50.74921 | 4.22049 | 10411 ft | 285 kts | 139° |
| 2026-05-05 13:52 | 50.73380 | 4.24014 | 10144 ft | 285 kts | 140° |
| 2026-05-05 13:52 | 50.71838 | 4.25979 | 9901 ft | 285 kts | 139° |
| 2026-05-05 13:52 | 50.70299 | 4.27938 | 9656 ft | 283 kts | 139° |
| 2026-05-05 13:52 | 50.68700 | 4.29720 | 9336 ft | 283 kts | 149° |
| 2026-05-05 13:53 | 50.66956 | 4.31161 | 9054 ft | 283 kts | 151° |
| 2026-05-05 13:53 | 50.65210 | 4.32596 | 8778 ft | 283 kts | 150° |
| 2026-05-05 13:53 | 50.63506 | 4.34036 | 8219 ft | 276 kts | 149° |
| 2026-05-05 13:53 | 50.61811 | 4.35473 | 7455 ft | 276 kts | 149° |
| 2026-05-05 13:54 | 50.60132 | 4.36884 | 6795 ft | 272 kts | 149° |
| 2026-05-05 13:54 | 50.58470 | 4.38274 | 6119 ft | 269 kts | 149° |
| 2026-05-05 13:54 | 50.56829 | 4.39648 | 5426 ft | 267 kts | 149° |
| 2026-05-05 13:54 | 50.55183 | 4.41028 | 4745 ft | 270 kts | 149° |
| 2026-05-05 13:55 | 50.53541 | 4.42403 | 4478 ft | 262 kts | 149° |
| 2026-05-05 13:55 | 50.51969 | 4.43715 | 4144 ft | 252 kts | 149° |
| 2026-05-05 13:55 | 50.50441 | 4.44987 | 3798 ft | 245 kts | 149° |
| 2026-05-05 13:55 | 50.48954 | 4.46228 | 3481 ft | 240 kts | 149° |
| 2026-05-05 13:56 | 50.47489 | 4.47469 | 3171 ft | 238 kts | 149° |
| 2026-05-05 13:56 | 50.46036 | 4.48685 | 2990 ft | 232 kts | 149° |
| 2026-05-05 13:56 | 50.44780 | 4.50115 | 2954 ft | 219 kts | 129° |
| 2026-05-05 13:56 | 50.43933 | 4.52058 | 2986 ft | 216 kts | 113° |
| 2026-05-05 13:57 | 50.43446 | 4.54313 | 3020 ft | 222 kts | 102° |
| 2026-05-05 13:57 | 50.43116 | 4.56693 | 3018 ft | 223 kts | 97° |
| 2026-05-05 13:57 | 50.42894 | 4.59101 | 3009 ft | 223 kts | 91° |
| 2026-05-05 13:57 | 50.42926 | 4.61519 | 3012 ft | 221 kts | 82° |
| 2026-05-05 13:58 | 50.43104 | 4.63921 | 3003 ft | 222 kts | 80° |
| 2026-05-05 13:58 | 50.43384 | 4.66310 | 3005 ft | 223 kts | 76° |
| 2026-05-05 13:58 | 50.43707 | 4.68676 | 3007 ft | 221 kts | 75° |
| 2026-05-05 13:58 | 50.44046 | 4.71017 | 2988 ft | 219 kts | 74° |
| 2026-05-05 13:59 | 50.45134 | 4.75493 | 2978 ft | 220 kts | 65° |
| 2026-05-05 13:59 | 50.45751 | 4.77678 | 2977 ft | 219 kts | 63° |
| 2026-05-05 14:00 | 50.47198 | 4.81890 | 2920 ft | 222 kts | 46° |
| 2026-05-05 14:00 | 50.48060 | 4.82713 | 2895 ft | 221 kts | 18° |
| 2026-05-05 14:00 | 50.50017 | 4.82213 | 2959 ft | 221 kts | 336° |
| 2026-05-05 14:00 | 50.51393 | 4.81066 | 3007 ft | 228 kts | 334° |
| 2026-05-05 14:01 | 50.52784 | 4.79831 | 2979 ft | 227 kts | 326° |
| 2026-05-05 14:01 | 50.53678 | 4.77838 | 2943 ft | 231 kts | 291° |
| 2026-05-05 14:01 | 50.53981 | 4.75355 | 3004 ft | 233 kts | 278° |
| 2026-05-05 14:01 | 50.53839 | 4.72828 | 2987 ft | 233 kts | 260° |
| 2026-05-05 14:02 | 50.53292 | 4.70381 | 2997 ft | 238 kts | 247° |
| 2026-05-05 14:02 | 50.52587 | 4.68038 | 3014 ft | 239 kts | 246° |
| 2026-05-05 14:02 | 50.51894 | 4.65680 | 2992 ft | 225 kts | 247° |
| 2026-05-05 14:02 | 50.51301 | 4.63655 | 2939 ft | 186 kts | 247° |
| 2026-05-05 14:03 | 50.50790 | 4.61865 | 2671 ft | 177 kts | 248° |
| 2026-05-05 14:03 | 50.50274 | 4.60087 | 2450 ft | 179 kts | 248° |
| 2026-05-05 14:03 | 50.49758 | 4.58307 | 2214 ft | 181 kts | 248° |
| 2026-05-05 14:03 | 50.49241 | 4.56527 | 1961 ft | 175 kts | 248° |
| 2026-05-05 14:04 | 50.48738 | 4.54797 | 1743 ft | 171 kts | 248° |
| 2026-05-05 14:04 | 50.48281 | 4.53205 | 1495 ft | 148 kts | 250° |
| 2026-05-05 14:04 | 50.47876 | 4.51818 | 1294 ft | 134 kts | 250° |
| 2026-05-05 14:04 | 50.47496 | 4.50491 | 1110 ft | 134 kts | 251° |
| 2026-05-05 14:05 | 50.47115 | 4.49185 | 919 ft | 129 kts | 249° |
| 2026-05-05 14:05 | 50.46745 | 4.47928 | 754 ft | 125 kts | 250° |
| 2026-05-05 14:05 | 50.46386 | 4.46670 | 620 ft | 126 kts | 249° |
| 2026-05-05 14:05 | 50.46057 | 4.45532 | 591 ft | 96 kts | 245° |
| 2026-05-05 14:06 | 50.45870 | 4.44895 | 592 ft | 42 kts | 245° |
| 2026-05-05 14:06 | 50.45801 | 4.44656 | 596 ft | 15 kts | 245° |
| 2026-05-05 14:06 | 50.45717 | 4.44636 | 594 ft | 10 kts | 155° |
| 2026-05-05 14:06 | 50.45698 | 4.44707 | 594 ft | 7 kts | 65° |
| 2026-05-05 14:07 | 50.45719 | 4.44779 | 593 ft | 7 kts | 65° |
| 2026-05-05 14:07 | 50.45739 | 4.44847 | 594 ft | 7 kts | 65° |
| 2026-05-05 14:07 | 50.45759 | 4.44917 | 593 ft | 8 kts | 66° |
| 2026-05-05 14:07 | 50.45784 | 4.45006 | 591 ft | 10 kts | 64° |
| 2026-05-05 14:08 | 50.45815 | 4.45111 | 590 ft | 10 kts | 66° |
| 2026-05-05 14:08 | 50.45843 | 4.45208 | 591 ft | 10 kts | 65° |
| 2026-05-05 14:08 | 50.45851 | 4.45232 | 591 ft | 1 kts | 65° |
| 2026-05-05 14:08 | 50.45856 | 4.45250 | 591 ft | 3 kts | 65° |
| 2026-05-05 14:09 | 50.45866 | 4.45286 | 590 ft | 5 kts | 66° |
| 2026-05-05 14:09 | 50.45870 | 4.45318 | 590 ft | 1 kts | 101° |
| 2026-05-05 14:09 | 50.45867 | 4.45325 | 591 ft | 1 kts | 121° |
| 2026-05-05 14:09 | 50.45862 | 4.45332 | 591 ft | 2 kts | 138° |
| 2026-05-05 14:10 | 50.45845 | 4.45347 | 593 ft | 3 kts | 153° |
| 2026-05-05 14:10 | 50.45829 | 4.45339 | 593 ft | 2 kts | 240° |
| 2026-05-05 14:10 | 50.45825 | 4.45326 | 593 ft | 0 kts | 249° |